Time;durP1;ratioP1;P1;durP2;ratioP2;P2;SDS_P1;SDS_P2;PMS_P1;PMS_P2;Temp;Humidity;BMP_temperature;BMP_pressure;BME280_temperature;BME280_humidity;BME280_pressure;Samples;Min_cycle;Max_cycle;Signal;HPM_P1;HPM_P2
2023/11/10 00:00:10;;;;;;;4.43;1.43;;;8.50;99.90;;;;;;5082820;28;20197;-47
2023/11/10 00:02:38;;;;;;;5.07;1.83;;;8.50;99.90;;;;;;5067890;28;20201;-44
2023/11/10 00:05:06;;;;;;;3.83;1.57;;;8.50;99.90;;;;;;5101928;28;20815;-49
2023/11/10 00:07:34;;;;;;;4.43;1.63;;;8.50;99.90;;;;;;5100164;28;20281;-47
2023/11/10 00:10:01;;;;;;;3.23;1.60;;;8.50;99.90;;;;;;5103188;28;20202;-48
2023/11/10 00:12:28;;;;;;;2.97;1.70;;;8.50;99.90;;;;;;5099089;28;20197;-42
2023/11/10 00:14:57;;;;;;;4.53;1.70;;;8.50;99.90;;;;;;5092935;28;20197;-43
2023/11/10 00:17:25;;;;;;;4.77;1.90;;;8.50;99.90;;;;;;5067220;28;20193;-42
2023/11/10 00:19:53;;;;;;;1.83;1.70;;;8.50;99.90;;;;;;5100264;28;20623;-43
2023/11/10 00:22:20;;;;;;;4.27;1.50;;;8.50;99.90;;;;;;5096994;28;20198;-45
2023/11/10 00:24:47;;;;;;;5.03;1.93;;;8.40;99.90;;;;;;5101623;28;20216;-42
2023/11/10 00:27:14;;;;;;;4.87;1.50;;;8.40;99.90;;;;;;5097716;28;20214;-50
2023/11/10 00:29:41;;;;;;;3.63;1.67;;;8.40;99.90;;;;;;5091154;28;20726;-46
2023/11/10 00:32:09;;;;;;;8.30;1.90;;;8.40;99.90;;;;;;5069924;28;20227;-47
2023/11/10 00:34:37;;;;;;;4.63;1.70;;;8.30;99.90;;;;;;5103606;28;20930;-44
2023/11/10 00:37:05;;;;;;;3.07;1.60;;;8.40;99.90;;;;;;5103926;28;20295;-47
2023/11/10 00:39:32;;;;;;;2.43;1.37;;;8.30;99.90;;;;;;5101089;28;20186;-45
2023/11/10 00:41:59;;;;;;;7.47;1.77;;;8.30;99.90;;;;;;5105499;28;20246;-45
2023/11/10 00:44:27;;;;;;;3.53;1.80;;;8.30;99.90;;;;;;5101596;28;20201;-43
2023/11/10 00:46:54;;;;;;;4.63;1.53;;;8.30;99.90;;;;;;5064713;28;20209;-44
2023/11/10 00:49:21;;;;;;;5.63;1.50;;;8.20;99.90;;;;;;5102142;28;20396;-42
2023/11/10 00:51:50;;;;;;;4.37;1.93;;;8.20;99.90;;;;;;5103823;28;20747;-44
2023/11/10 00:54:16;;;;;;;6.63;1.70;;;8.20;99.90;;;;;;5101726;27;20205;-45
2023/11/10 00:56:43;;;;;;;2.53;1.70;;;8.20;99.90;;;;;;5104240;27;20213;-49
2023/11/10 00:59:11;;;;;;;2.47;1.50;;;8.20;99.90;;;;;;5101582;28;20201;-49
2023/11/10 01:01:38;;;;;;;4.37;1.73;;;8.20;99.90;;;;;;5093951;28;20201;-48
2023/11/10 01:04:06;;;;;;;3.17;1.50;;;8.20;99.90;;;;;;5070246;28;20193;-49
2023/11/10 01:06:33;;;;;;;1.60;1.10;;;8.10;99.90;;;;;;5103468;28;20274;-54
2023/11/10 01:09:02;;;;;;;2.10;1.00;;;8.10;99.90;;;;;;5104311;28;20278;-49
2023/11/10 01:11:29;;;;;;;2.60;0.80;;;8.00;99.90;;;;;;5102093;28;20879;-50
2023/11/10 01:13:56;;;;;;;0.60;0.43;;;7.80;99.90;;;;;;5103128;28;20201;-49
2023/11/10 01:16:23;;;;;;;1.90;0.77;;;7.70;99.90;;;;;;5102128;28;20221;-42
2023/11/10 01:18:50;;;;;;;0.50;0.50;;;7.70;99.90;;;;;;5063365;28;20213;-44
2023/11/10 01:21:18;;;;;;;1.47;0.70;;;7.60;99.90;;;;;;5099833;28;20308;-45
2023/11/10 01:23:45;;;;;;;1.80;0.33;;;7.60;99.90;;;;;;5101041;28;20743;-47
2023/11/10 01:26:13;;;;;;;0.77;0.30;;;7.50;99.90;;;;;;5100743;28;20220;-46
2023/11/10 01:28:40;;;;;;;0.40;0.40;;;7.40;99.90;;;;;;5104911;27;20241;-47
2023/11/10 01:31:08;;;;;;;1.10;0.20;;;7.40;99.90;;;;;;5102203;28;20205;-48
2023/11/10 01:33:36;;;;;;;0.37;0.20;;;7.40;99.90;;;;;;5062979;28;20212;-45
2023/11/10 01:36:03;;;;;;;1.80;0.27;;;7.30;99.90;;;;;;5099938;28;20223;-49
2023/11/10 01:38:29;;;;;;;1.57;0.40;;;7.30;99.90;;;;;;5103152;28;20966;-48
2023/11/10 01:40:56;;;;;;;0.53;0.30;;;7.20;99.90;;;;;;5104479;28;20197;-49
2023/11/10 01:43:24;;;;;;;0.83;0.40;;;7.20;99.90;;;;;;5101683;28;20189;-43
2023/11/10 01:45:51;;;;;;;0.50;0.20;;;7.20;99.90;;;;;;5102788;28;21463;-44
2023/11/10 01:48:20;;;;;;;0.23;0.23;;;7.20;99.90;;;;;;5069873;28;20220;-48
2023/11/10 01:50:48;;;;;;;0.30;0.20;;;7.20;99.90;;;;;;5104418;28;20224;-43
2023/11/10 01:53:15;;;;;;;0.37;0.30;;;7.20;99.90;;;;;;5099011;28;20189;-44
2023/11/10 01:55:43;;;;;;;0.30;0.30;;;7.20;99.90;;;;;;5102301;28;20683;-48
2023/11/10 01:58:12;;;;;;;0.40;0.37;;;7.20;99.90;;;;;;5097357;28;20193;-52
2023/11/10 02:00:41;;;;;;;0.30;0.20;;;7.20;99.90;;;;;;5095205;28;20296;-46
2023/11/10 02:03:08;;;;;;;1.27;0.30;;;7.20;99.90;;;;;;5077530;28;20185;-50
2023/11/10 02:05:36;;;;;;;1.13;0.30;;;7.20;99.90;;;;;;5099172;28;20221;-45
2023/11/10 02:08:04;;;;;;;0.53;0.40;;;7.20;99.90;;;;;;5102522;28;20198;-47
2023/11/10 02:10:31;;;;;;;2.33;0.60;;;7.20;99.90;;;;;;5102822;28;20205;-45
2023/11/10 02:12:59;;;;;;;0.87;0.30;;;7.30;99.90;;;;;;5101958;28;20570;-49
2023/11/10 02:15:27;;;;;;;0.67;0.67;;;7.30;99.90;;;;;;5093667;28;20247;-43
2023/11/10 02:17:56;;;;;;;0.40;0.40;;;7.30;99.90;;;;;;5103812;28;20193;-45
2023/11/10 02:20:23;;;;;;;0.60;0.60;;;7.30;99.90;;;;;;5066579;28;20266;-46
2023/11/10 02:22:50;;;;;;;1.23;0.50;;;7.30;99.90;;;;;;5101161;28;20297;-48
2023/11/10 02:25:19;;;;;;;1.33;0.50;;;7.30;99.90;;;;;;5098951;27;20214;-44
2023/11/10 02:27:47;;;;;;;3.63;0.80;;;7.20;99.90;;;;;;5093805;28;20687;-44
2023/11/10 02:30:14;;;;;;;0.90;0.70;;;7.30;99.90;;;;;;5099188;28;20205;-47
2023/11/10 02:32:42;;;;;;;2.83;0.90;;;7.30;99.90;;;;;;5102372;28;20254;-45
2023/11/10 02:35:10;;;;;;;2.00;0.90;;;7.30;99.90;;;;;;5071896;28;20197;-48
2023/11/10 02:37:38;;;;;;;1.83;1.13;;;7.40;99.90;;;;;;5103068;28;20209;-42
2023/11/10 02:40:06;;;;;;;1.53;1.20;;;7.30;99.90;;;;;;5101143;28;20189;-46
2023/11/10 02:42:35;;;;;;;2.07;1.83;;;7.40;99.90;;;;;;5102901;28;20663;-43
2023/11/10 02:45:02;;;;;;;4.50;1.93;;;7.40;99.90;;;;;;5101227;27;20193;-44
2023/11/10 02:47:30;;;;;;;2.00;1.50;;;7.40;99.90;;;;;;5101709;28;20194;-44
2023/11/10 02:49:57;;;;;;;2.90;1.90;;;7.40;99.90;;;;;;5101183;28;20217;-49
2023/11/10 02:52:23;;;;;;;2.20;2.00;;;7.40;99.90;;;;;;5068959;28;20266;-43
2023/11/10 02:54:50;;;;;;;2.10;1.90;;;7.50;99.90;;;;;;5102046;28;20185;-43
2023/11/10 02:57:17;;;;;;;4.87;2.13;;;7.50;99.90;;;;;;5097352;28;20185;-47
2023/11/10 02:59:46;;;;;;;3.00;2.40;;;7.50;99.90;;;;;;5094578;28;20198;-46
2023/11/10 03:02:14;;;;;;;5.37;2.57;;;7.50;99.90;;;;;;5096827;28;20193;-43
2023/11/10 03:04:41;;;;;;;4.90;2.90;;;7.50;99.90;;;;;;5101962;28;20198;-46
2023/11/10 03:07:09;;;;;;;3.50;2.70;;;7.50;99.90;;;;;;5063090;28;20221;-49
2023/11/10 03:09:36;;;;;;;3.37;2.40;;;7.50;99.90;;;;;;5106905;27;20243;-44
2023/11/10 03:12:03;;;;;;;2.73;2.53;;;7.60;99.90;;;;;;5094563;28;20206;-51
2023/11/10 03:14:30;;;;;;;3.33;2.40;;;7.50;99.90;;;;;;5101440;28;20927;-42
2023/11/10 03:16:58;;;;;;;2.63;2.43;;;7.50;99.90;;;;;;5102451;28;20262;-44
2023/11/10 03:19:25;;;;;;;4.13;2.50;;;7.60;99.90;;;;;;5084921;28;20251;-42
2023/11/10 03:21:51;;;;;;;2.47;2.30;;;7.60;99.90;;;;;;5074057;27;20252;-41
2023/11/10 03:24:18;;;;;;;4.20;2.50;;;7.50;99.90;;;;;;5104440;27;20197;-45
2023/11/10 03:26:45;;;;;;;3.40;3.10;;;7.50;99.90;;;;;;5099012;28;20265;-49
2023/11/10 03:29:13;;;;;;;2.93;2.73;;;7.60;99.90;;;;;;5101421;28;20715;-43
2023/11/10 03:31:40;;;;;;;3.33;3.13;;;7.60;99.90;;;;;;5099478;28;20194;-49
2023/11/10 03:34:08;;;;;;;3.20;2.90;;;7.60;99.90;;;;;;5100616;28;20234;-43
2023/11/10 03:36:36;;;;;;;3.27;2.97;;;7.60;99.90;;;;;;5092716;28;20221;-50
2023/11/10 03:39:04;;;;;;;3.93;3.03;;;7.60;99.90;;;;;;5079597;28;20346;-47
2023/11/10 03:41:31;;;;;;;4.00;3.03;;;7.60;99.90;;;;;;5089232;28;20197;-44
2023/11/10 03:43:58;;;;;;;5.13;3.27;;;7.60;99.90;;;;;;5102934;27;20930;-44
2023/11/10 03:46:25;;;;;;;3.30;2.93;;;7.60;99.90;;;;;;5101099;28;20213;-49
2023/11/10 03:48:51;;;;;;;3.80;3.50;;;7.60;99.90;;;;;;5091599;28;20910;-45
2023/11/10 03:51:20;;;;;;;4.67;3.43;;;7.70;99.90;;;;;;5096823;28;20309;-43
2023/11/10 03:53:47;;;;;;;3.77;3.47;;;7.60;99.90;;;;;;5067549;28;20274;-43
2023/11/10 03:56:14;;;;;;;3.77;3.47;;;7.60;99.90;;;;;;5103506;27;20698;-42
2023/11/10 03:58:41;;;;;;;3.43;3.13;;;7.60;99.90;;;;;;5099766;28;20209;-43
2023/11/10 04:01:11;;;;;;;3.93;3.27;;;7.60;99.90;;;;;;5103367;28;20292;-44
2023/11/10 04:03:39;;;;;;;3.60;3.30;;;7.60;99.90;;;;;;5098880;28;20221;-49
2023/11/10 04:06:06;;;;;;;4.90;3.50;;;7.60;99.90;;;;;;5103349;28;20225;-48
2023/11/10 04:08:34;;;;;;;6.30;3.93;;;7.60;99.90;;;;;;5059859;28;20214;-47
2023/11/10 04:11:01;;;;;;;3.93;3.30;;;7.70;99.90;;;;;;5105830;28;20276;-43
2023/11/10 04:13:28;;;;;;;3.87;3.47;;;7.70;99.90;;;;;;5104785;28;20204;-50
2023/11/10 04:15:56;;;;;;;4.40;3.73;;;7.60;99.90;;;;;;5100861;27;20231;-43
2023/11/10 04:18:26;;;;;;;5.17;4.67;;;7.60;99.90;;;;;;5105895;28;20725;-49
2023/11/10 04:20:55;;;;;;;4.87;4.40;;;7.70;99.90;;;;;;5104776;27;20247;-43
2023/11/10 04:23:21;;;;;;;5.00;4.43;;;7.70;99.90;;;;;;5095764;27;20212;-46
2023/11/10 04:25:50;;;;;;;5.13;4.30;;;7.70;99.90;;;;;;5079365;27;20224;-47
2023/11/10 04:28:16;;;;;;;6.57;4.93;;;7.70;99.90;;;;;;5106229;27;20213;-44
2023/11/10 04:30:44;;;;;;;5.73;5.23;;;7.70;99.90;;;;;;5081340;27;20306;-45
2023/11/10 04:33:10;;;;;;;7.13;5.20;;;7.70;99.90;;;;;;5106209;27;20194;-44
2023/11/10 04:35:37;;;;;;;5.70;4.97;;;7.70;99.90;;;;;;5102349;28;20240;-49
2023/11/10 04:38:04;;;;;;;8.13;4.70;;;7.70;99.90;;;;;;5106342;27;20193;-42
2023/11/10 04:40:32;;;;;;;5.37;4.93;;;7.70;99.90;;;;;;5071552;27;20205;-50
2023/11/10 04:43:00;;;;;;;5.30;4.70;;;7.70;99.90;;;;;;5095805;27;20201;-43
2023/11/10 04:45:28;;;;;;;6.57;4.13;;;7.70;99.90;;;;;;5105266;28;20245;-49
2023/11/10 04:47:55;;;;;;;5.30;4.80;;;7.70;99.90;;;;;;5104011;28;20181;-48
2023/11/10 04:50:22;;;;;;;4.80;4.40;;;7.70;99.90;;;;;;5104804;28;20722;-47
2023/11/10 04:52:51;;;;;;;6.40;5.80;;;7.70;99.90;;;;;;5099819;28;20194;-43
2023/11/10 04:55:18;;;;;;;5.93;4.87;;;7.70;99.90;;;;;;5073508;28;20224;-44
2023/11/10 04:57:45;;;;;;;7.17;4.87;;;7.70;99.90;;;;;;5102390;28;20191;-44
2023/11/10 05:00:14;;;;;;;5.87;5.03;;;7.70;99.90;;;;;;5103660;28;20189;-47
2023/11/10 05:02:43;;;;;;;5.50;5.00;;;7.70;99.90;;;;;;5101548;28;20220;-45
2023/11/10 05:05:12;;;;;;;6.93;4.77;;;7.70;99.90;;;;;;5103015;28;20201;-45
2023/11/10 05:07:39;;;;;;;4.63;4.23;;;7.70;99.90;;;;;;5101633;28;20193;-47
2023/11/10 05:10:07;;;;;;;5.90;4.73;;;7.70;99.90;;;;;;5073837;28;20735;-43
2023/11/10 05:12:36;;;;;;;5.57;4.30;;;7.70;99.90;;;;;;5103154;28;20876;-47
2023/11/10 05:15:05;;;;;;;5.07;4.63;;;7.70;99.90;;;;;;5104973;28;20189;-47
2023/11/10 05:17:36;;;;;;;5.57;4.27;;;7.60;99.90;;;;;;5096005;27;20215;-43
2023/11/10 05:20:03;;;;;;;4.77;4.37;;;7.60;99.90;;;;;;5102918;28;20277;-43
2023/11/10 05:22:32;;;;;;;5.00;4.50;;;7.60;99.90;;;;;;5094726;28;20284;-47
2023/11/10 05:25:01;;;;;;;4.40;4.07;;;7.60;99.90;;;;;;5104283;28;20209;-43
2023/11/10 05:27:28;;;;;;;7.30;4.10;;;7.60;99.90;;;;;;5081739;28;20209;-51
2023/11/10 05:29:55;;;;;;;4.07;3.67;;;7.60;99.90;;;;;;5100902;28;20210;-44
2023/11/10 05:32:22;;;;;;;5.37;4.27;;;7.60;99.90;;;;;;5099038;27;20266;-47
2023/11/10 05:34:50;;;;;;;4.70;4.20;;;7.60;99.90;;;;;;5101492;28;20266;-46
2023/11/10 05:37:18;;;;;;;3.90;3.60;;;7.60;99.90;;;;;;5092214;28;20640;-50
2023/11/10 05:39:45;;;;;;;6.00;3.73;;;7.60;99.90;;;;;;5102922;28;20239;-45
2023/11/10 05:42:12;;;;;;;4.43;3.80;;;7.60;99.90;;;;;;5065115;28;20206;-45
2023/11/10 05:44:39;;;;;;;4.17;3.53;;;7.60;99.90;;;;;;5095759;28;20229;-43
2023/11/10 05:47:06;;;;;;;5.70;3.90;;;7.60;99.90;;;;;;5102537;28;20389;-48
2023/11/10 05:49:34;;;;;;;6.43;4.30;;;7.70;99.90;;;;;;5102866;27;20181;-42
2023/11/10 05:52:02;;;;;;;4.33;3.70;;;7.70;99.90;;;;;;5102447;27;20599;-47
2023/11/10 05:54:29;;;;;;;14.70;4.40;;;7.70;99.90;;;;;;5100499;27;20189;-46
2023/11/10 05:56:56;;;;;;;11.47;4.20;;;7.70;99.90;;;;;;5103026;27;20365;-45
2023/11/10 05:59:25;;;;;;;5.70;4.00;;;7.70;99.90;;;;;;5058854;27;20400;-47
2023/11/10 06:01:52;;;;;;;5.77;4.00;;;7.60;99.90;;;;;;5102611;28;20678;-42
2023/11/10 06:04:19;;;;;;;5.40;4.03;;;7.60;99.90;;;;;;5098389;28;20197;-50
2023/11/10 06:06:46;;;;;;;4.53;3.83;;;7.60;99.90;;;;;;5103979;28;20217;-44
2023/11/10 06:09:16;;;;;;;7.30;3.60;;;7.70;99.90;;;;;;5096490;28;20202;-50
2023/11/10 06:11:44;;;;;;;4.90;3.53;;;7.60;99.90;;;;;;5103094;28;20221;-48
2023/11/10 06:14:11;;;;;;;3.63;3.27;;;7.60;99.90;;;;;;5063471;27;20208;-50
2023/11/10 06:16:39;;;;;;;3.93;3.63;;;7.60;99.90;;;;;;5095986;28;20217;-46
2023/11/10 06:19:06;;;;;;;6.13;3.37;;;7.60;99.90;;;;;;5101445;28;20193;-49
2023/11/10 06:21:33;;;;;;;4.43;2.90;;;7.60;99.90;;;;;;5100672;27;20190;-43
2023/11/10 06:24:00;;;;;;;4.50;3.57;;;7.60;99.90;;;;;;5103769;28;20196;-44
2023/11/10 06:26:29;;;;;;;5.80;3.40;;;7.60;99.90;;;;;;5092685;28;20309;-43
2023/11/10 06:28:56;;;;;;;5.60;3.43;;;7.60;99.90;;;;;;5064964;28;20974;-43
2023/11/10 06:31:24;;;;;;;3.97;3.10;;;7.60;99.90;;;;;;5091498;28;20217;-44
2023/11/10 06:33:51;;;;;;;6.77;3.30;;;7.60;99.90;;;;;;5103195;28;20217;-42
2023/11/10 06:36:19;;;;;;;4.30;3.03;;;7.60;99.90;;;;;;5098846;28;20217;-48
2023/11/10 06:38:47;;;;;;;3.20;2.90;;;7.60;99.90;;;;;;5092799;28;20197;-50
2023/11/10 06:41:15;;;;;;;5.73;3.07;;;7.60;99.90;;;;;;5094662;28;20209;-43
2023/11/10 06:43:45;;;;;;;3.30;3.00;;;7.60;99.90;;;;;;5063502;27;20202;-47
2023/11/10 06:46:12;;;;;;;5.07;3.17;;;7.60;99.90;;;;;;5087422;28;20296;-42
2023/11/10 06:48:39;;;;;;;4.67;2.87;;;7.60;99.90;;;;;;5102181;27;20611;-48
2023/11/10 06:51:06;;;;;;;5.97;2.60;;;7.60;99.90;;;;;;5102727;27;20217;-44
2023/11/10 06:53:33;;;;;;;6.13;2.80;;;7.60;99.90;;;;;;5099462;28;20796;-46
2023/11/10 06:55:59;;;;;;;4.17;2.23;;;7.60;99.90;;;;;;5081295;28;20220;-42
2023/11/10 06:58:26;;;;;;;3.57;2.30;;;7.60;99.90;;;;;;5091306;28;20197;-53
2023/11/10 07:00:54;;;;;;;5.33;2.83;;;7.60;99.90;;;;;;5070053;27;20193;-42
2023/11/10 07:03:22;;;;;;;6.47;3.00;;;7.60;99.90;;;;;;5100663;28;20856;-47
2023/11/10 07:05:49;;;;;;;4.30;2.53;;;7.60;99.90;;;;;;5093346;28;20259;-42
2023/11/10 07:08:17;;;;;;;6.03;2.63;;;7.70;99.90;;;;;;5083518;28;21210;-43
2023/11/10 07:10:53;;;;;;;5.20;2.20;;;7.70;99.90;;;;;;5101074;28;20221;-44
2023/11/10 07:13:20;;;;;;;3.23;2.63;;;7.70;99.90;;;;;;5089490;28;20205;-43
2023/11/10 07:15:48;;;;;;;4.27;2.43;;;7.70;99.90;;;;;;5067988;28;20224;-45
2023/11/10 07:18:17;;;;;;;3.60;2.40;;;7.70;99.90;;;;;;5090112;28;20185;-44
2023/11/10 07:20:44;;;;;;;6.87;2.10;;;7.70;99.90;;;;;;5074545;27;20203;-46
2023/11/10 07:23:12;;;;;;;4.13;2.00;;;7.70;99.90;;;;;;5092360;27;20528;-47
2023/11/10 07:25:39;;;;;;;4.23;2.07;;;7.70;99.90;;;;;;5092375;28;20289;-43
2023/11/10 07:28:06;;;;;;;4.03;1.80;;;7.70;99.90;;;;;;5081209;28;20908;-43
2023/11/10 07:30:33;;;;;;;3.83;1.90;;;7.80;99.90;;;;;;5063917;27;20205;-46
2023/11/10 07:33:00;;;;;;;6.07;2.00;;;7.80;99.90;;;;;;5088108;28;20221;-43
2023/11/10 07:35:28;;;;;;;3.93;2.07;;;7.80;99.90;;;;;;5082272;28;20298;-48
2023/11/10 07:37:55;;;;;;;3.03;1.90;;;7.80;99.90;;;;;;5092502;28;20193;-42
2023/11/10 07:40:22;;;;;;;4.33;1.83;;;7.80;99.90;;;;;;5086838;28;20197;-47
2023/11/10 07:42:50;;;;;;;2.87;2.40;;;7.80;99.90;;;;;;5088750;28;20892;-45
2023/11/10 07:45:18;;;;;;;3.17;2.07;;;7.80;99.90;;;;;;5055677;28;20213;-44
2023/11/10 07:47:46;;;;;;;3.53;1.87;;;7.90;99.90;;;;;;5087807;28;20207;-50
2023/11/10 07:50:14;;;;;;;3.70;1.70;;;7.90;99.90;;;;;;5094011;28;20201;-43
2023/11/10 07:52:43;;;;;;;2.33;1.50;;;7.90;99.90;;;;;;5098313;28;20198;-50
2023/11/10 07:55:11;;;;;;;6.73;1.80;;;7.90;99.90;;;;;;5085840;28;20201;-49
2023/11/10 07:57:38;;;;;;;2.90;1.37;;;7.90;99.90;;;;;;5086149;28;20197;-48
2023/11/10 08:00:07;;;;;;;2.40;1.33;;;7.90;99.90;;;;;;5067162;28;20373;-44
2023/11/10 08:02:41;;;;;;;3.33;1.40;;;8.00;99.90;;;;;;5094596;28;20215;-50
2023/11/10 08:05:08;;;;;;;4.57;1.50;;;8.00;99.90;;;;;;5091280;28;21900;-44
2023/11/10 08:07:35;;;;;;;3.33;1.43;;;8.00;99.90;;;;;;5103032;28;20197;-45
2023/11/10 08:10:04;;;;;;;4.20;1.23;;;8.00;99.90;;;;;;5091512;28;20294;-43
2023/11/10 08:12:31;;;;;;;2.03;1.27;;;8.00;99.90;;;;;;5097790;28;20289;-43
2023/11/10 08:14:58;;;;;;;1.87;1.20;;;8.00;99.90;;;;;;5090340;28;20196;-43
2023/11/10 08:17:27;;;;;;;1.57;1.00;;;8.00;99.90;;;;;;5071497;28;20205;-43
2023/11/10 08:19:54;;;;;;;3.00;1.27;;;8.00;99.90;;;;;;5082966;28;20192;-42
2023/11/10 08:22:20;;;;;;;1.10;1.00;;;8.00;99.90;;;;;;5100584;28;20201;-44
2023/11/10 08:24:47;;;;;;;4.30;1.13;;;8.00;99.90;;;;;;5097693;28;20196;-47
2023/11/10 08:27:15;;;;;;;2.40;1.20;;;8.10;99.90;;;;;;5078498;28;20229;-44
2023/11/10 08:29:44;;;;;;;3.90;1.20;;;8.10;99.90;;;;;;5090463;28;20212;-48
2023/11/10 08:32:14;;;;;;;2.87;1.03;;;8.00;99.90;;;;;;5060671;28;21355;-43
2023/11/10 08:34:42;;;;;;;2.67;1.23;;;8.10;99.90;;;;;;5096937;28;20214;-48
2023/11/10 08:37:11;;;;;;;1.80;0.90;;;8.10;99.90;;;;;;5097600;28;20494;-42
2023/11/10 08:39:39;;;;;;;0.97;0.87;;;8.10;99.90;;;;;;5093520;28;20203;-44
2023/11/10 08:42:13;;;;;;;1.20;1.10;;;8.10;99.90;;;;;;5083841;28;20186;-44
2023/11/10 08:44:44;;;;;;;2.40;1.00;;;8.10;99.90;;;;;;5090563;28;20204;-43
2023/11/10 08:47:12;;;;;;;2.17;0.97;;;8.20;99.90;;;;;;5094597;28;20249;-48
2023/11/10 08:49:39;;;;;;;1.53;1.20;;;8.20;99.90;;;;;;5077825;28;20209;-46
2023/11/10 08:52:15;;;;;;;2.57;1.27;;;8.20;99.90;;;;;;5086695;28;20306;-45
2023/11/10 08:54:42;;;;;;;2.20;1.20;;;8.20;99.90;;;;;;5095307;28;20222;-45
2023/11/10 08:57:12;;;;;;;6.27;1.90;;;8.20;99.90;;;;;;5095510;28;20217;-46
2023/11/10 09:00:06;;;;;;;1.93;1.17;;;8.30;99.90;;;;;;5086021;27;20229;-49
2023/11/10 09:02:35;;;;;;;3.80;1.40;;;8.30;99.90;;;;;;5097941;28;20950;-45
2023/11/10 09:05:06;;;;;;;3.40;1.77;;;8.30;99.90;;;;;;5076937;27;20565;-46
2023/11/10 09:07:34;;;;;;;1.50;1.17;;;8.30;99.90;;;;;;5087307;28;20198;-46
2023/11/10 09:10:05;;;;;;;3.03;1.60;;;8.40;99.90;;;;;;5101242;27;20255;-45
2023/11/10 09:12:35;;;;;;;2.50;1.20;;;8.40;99.90;;;;;;5103202;28;20242;-43
2023/11/10 09:15:11;;;;;;;4.07;1.17;;;8.40;99.90;;;;;;5093100;27;20276;-46
2023/11/10 09:17:42;;;;;;;5.03;1.60;;;8.40;99.90;;;;;;5086599;28;20197;-47
2023/11/10 09:20:21;;;;;;;1.40;1.30;;;8.40;99.90;;;;;;5067979;27;20627;-46
2023/11/10 09:22:49;;;;;;;1.60;1.50;;;8.40;99.90;;;;;;5093594;27;20208;-51
2023/11/10 09:25:20;;;;;;;4.37;1.33;;;8.40;99.90;;;;;;5102026;28;20626;-44
2023/11/10 09:27:48;;;;;;;1.90;1.20;;;8.50;99.90;;;;;;5096296;28;20278;-45
2023/11/10 09:30:19;;;;;;;1.50;1.40;;;8.50;99.90;;;;;;5094639;28;20303;-43
2023/11/10 09:32:46;;;;;;;2.93;1.30;;;8.50;99.90;;;;;;5085890;28;20209;-49
2023/11/10 09:35:19;;;;;;;4.83;1.33;;;8.50;99.90;;;;;;5077094;27;20202;-45
2023/11/10 09:37:46;;;;;;;3.77;1.30;;;8.50;99.90;;;;;;5091234;28;20688;-45
2023/11/10 09:40:19;;;;;;;4.20;1.50;;;8.50;99.90;;;;;;5100960;27;20239;-45
2023/11/10 09:42:50;;;;;;;4.37;1.23;;;8.60;99.90;;;;;;5095204;28;20189;-48
2023/11/10 09:45:27;;;;;;;3.10;1.50;;;8.60;99.90;;;;;;5094974;28;20703;-45
2023/11/10 09:48:09;;;;;;;2.50;1.40;;;8.60;99.90;;;;;;5088398;27;20202;-45
2023/11/10 09:50:38;;;;;;;3.03;1.20;;;8.60;99.90;;;;;;5062105;27;20722;-47
2023/11/10 09:53:09;;;;;;;3.53;1.53;;;8.60;99.90;;;;;;5091243;27;20281;-46
2023/11/10 09:55:37;;;;;;;2.77;1.60;;;8.60;99.90;;;;;;5108346;27;20688;-48
2023/11/10 09:58:12;;;;;;;3.33;1.40;;;8.60;99.90;;;;;;5093783;28;20213;-42
2023/11/10 10:00:43;;;;;;;1.67;1.30;;;8.60;99.90;;;;;;5091379;28;20208;-48
2023/11/10 10:03:19;;;;;;;3.07;1.43;;;8.70;99.90;;;;;;5100216;28;20205;-44
2023/11/10 10:05:47;;;;;;;3.43;1.50;;;8.70;99.90;;;;;;5070236;28;20219;-49
2023/11/10 10:08:19;;;;;;;2.80;1.27;;;8.70;99.90;;;;;;5098559;27;20228;-43
2023/11/10 10:10:49;;;;;;;3.13;1.37;;;8.70;99.90;;;;;;5098133;27;20629;-48
2023/11/10 10:13:21;;;;;;;6.87;1.30;;;8.70;99.90;;;;;;5103246;28;20197;-44
2023/11/10 10:15:50;;;;;;;4.90;1.70;;;8.70;99.90;;;;;;5094671;27;20220;-48
2023/11/10 10:18:24;;;;;;;4.17;1.67;;;8.70;99.90;;;;;;5092457;28;20275;-43
2023/11/10 10:21:02;;;;;;;2.77;1.60;;;8.70;99.90;;;;;;5058352;27;20201;-46
2023/11/10 10:23:32;;;;;;;1.73;1.40;;;8.70;99.90;;;;;;5099210;28;20192;-43
2023/11/10 10:26:15;;;;;;;1.50;1.40;;;8.70;99.90;;;;;;5090315;28;20485;-44
2023/11/10 10:28:45;;;;;;;4.60;1.60;;;8.70;99.90;;;;;;5099675;27;20193;-45
2023/11/10 10:31:20;;;;;;;6.27;1.70;;;8.60;99.90;;;;;;5093958;27;20220;-43
2023/11/10 10:33:48;;;;;;;2.63;1.43;;;8.60;99.90;;;;;;5085923;28;20196;-43
2023/11/10 10:36:17;;;;;;;2.73;1.60;;;8.50;99.90;;;;;;5095246;27;20307;-43
2023/11/10 10:38:52;;;;;;;2.30;1.47;;;8.50;99.90;;;;;;5070058;27;20696;-46
2023/11/10 10:41:32;;;;;;;3.67;1.77;;;8.40;99.90;;;;;;5089797;28;20207;-44
2023/11/10 10:44:05;;;;;;;4.40;1.73;;;8.40;99.90;;;;;;5098234;27;20185;-42
2023/11/10 10:46:36;;;;;;;1.97;1.73;;;8.40;99.90;;;;;;5097124;28;20212;-44
2023/11/10 10:49:04;;;;;;;2.50;2.30;;;8.40;99.90;;;;;;5092925;28;20192;-45
2023/11/10 10:51:34;;;;;;;2.70;2.00;;;8.40;99.90;;;;;;5093106;27;20217;-44
2023/11/10 10:54:03;;;;;;;4.13;1.93;;;8.40;99.90;;;;;;5073913;27;20274;-44
2023/11/10 10:56:31;;;;;;;4.50;1.90;;;8.40;99.90;;;;;;5089766;27;20537;-43
2023/11/10 10:58:59;;;;;;;2.70;2.03;;;8.50;99.90;;;;;;5093348;27;20213;-42
2023/11/10 11:01:31;;;;;;;2.20;2.03;;;8.50;99.90;;;;;;5097077;28;20562;-43
2023/11/10 11:04:14;;;;;;;2.97;1.90;;;8.60;99.90;;;;;;5091866;28;20863;-43
2023/11/10 11:06:53;;;;;;;2.23;2.03;;;8.60;99.90;;;;;;5095889;28;20266;-43
2023/11/10 11:09:52;;;;;;;2.33;2.00;;;8.70;99.90;;;;;;5091633;27;20220;-43
2023/11/10 11:12:56;;;;;;;2.70;1.77;;;8.60;99.90;;;;;;5091870;27;20220;-44
2023/11/10 11:15:31;;;;;;;2.70;1.90;;;8.70;99.90;;;;;;5100324;28;20293;-45
2023/11/10 11:18:19;;;;;;;2.20;1.90;;;8.70;99.90;;;;;;5099893;27;20196;-42
2023/11/10 11:20:51;;;;;;;4.70;2.20;;;8.80;99.90;;;;;;5094869;28;20272;-43
2023/11/10 11:23:21;;;;;;;2.40;2.20;;;8.80;99.90;;;;;;5089587;27;20246;-43
2023/11/10 11:25:57;;;;;;;2.03;1.93;;;8.80;99.90;;;;;;5079248;27;20366;-42
2023/11/10 11:28:26;;;;;;;5.67;1.80;;;8.90;99.90;;;;;;5098831;27;20208;-45
2023/11/10 11:31:08;;;;;;;2.37;2.00;;;8.90;99.90;;;;;;5098049;28;20689;-45
2023/11/10 11:33:35;;;;;;;2.87;1.60;;;8.90;99.90;;;;;;5103312;28;20217;-44
2023/11/10 11:36:16;;;;;;;4.83;2.07;;;9.00;99.90;;;;;;5096481;28;20508;-43
2023/11/10 11:38:46;;;;;;;3.73;2.03;;;9.00;99.90;;;;;;5087882;28;20292;-43
2023/11/10 11:41:34;;;;;;;2.73;1.80;;;9.00;99.90;;;;;;5094681;28;20197;-44
2023/11/10 11:44:01;;;;;;;3.87;1.70;;;9.00;99.90;;;;;;5100904;28;20270;-46
2023/11/10 11:46:35;;;;;;;2.53;1.67;;;9.10;99.90;;;;;;5105492;27;20734;-43
2023/11/10 11:49:06;;;;;;;2.50;1.40;;;9.10;99.90;;;;;;5090361;28;20201;-46
2023/11/10 11:51:37;;;;;;;2.77;1.40;;;9.10;99.90;;;;;;5102412;28;20193;-44
2023/11/10 11:54:15;;;;;;;1.67;1.53;;;9.10;99.90;;;;;;5087334;28;20281;-45
2023/11/10 11:56:44;;;;;;;3.27;1.80;;;9.10;99.90;;;;;;5071293;28;20217;-44
2023/11/10 11:59:16;;;;;;;2.37;1.20;;;9.20;99.90;;;;;;5103274;28;20195;-44
2023/11/10 12:01:49;;;;;;;3.53;1.80;;;9.20;99.90;;;;;;5097661;28;20193;-46
2023/11/10 12:04:20;;;;;;;3.37;1.60;;;9.20;99.90;;;;;;5101542;28;20193;-44
2023/11/10 12:06:52;;;;;;;3.00;1.30;;;9.20;99.90;;;;;;5087535;28;20318;-48
2023/11/10 12:09:19;;;;;;;3.30;1.33;;;9.20;99.90;;;;;;5099012;28;20283;-45
2023/11/10 12:11:47;;;;;;;1.93;1.80;;;9.20;99.90;;;;;;5071958;28;20201;-47
2023/11/10 12:14:16;;;;;;;1.63;1.50;;;9.20;99.90;;;;;;5102555;28;20239;-44
2023/11/10 12:16:44;;;;;;;2.63;1.80;;;9.10;99.90;;;;;;5090146;28;20296;-49
2023/11/10 12:19:12;;;;;;;2.60;1.90;;;9.20;99.90;;;;;;5097442;28;20205;-44
2023/11/10 12:21:39;;;;;;;3.57;1.83;;;9.20;99.90;;;;;;5082459;28;20190;-46
2023/11/10 12:24:09;;;;;;;3.43;2.10;;;9.30;99.90;;;;;;5091602;28;20210;-47
2023/11/10 12:26:38;;;;;;;2.87;1.80;;;9.20;99.90;;;;;;5070528;28;20629;-48
2023/11/10 12:29:07;;;;;;;2.77;1.67;;;9.20;99.90;;;;;;5100605;27;21532;-44
2023/11/10 12:31:34;;;;;;;2.80;1.80;;;9.30;99.90;;;;;;5099342;28;20193;-46
2023/11/10 12:34:02;;;;;;;4.37;2.43;;;9.30;99.90;;;;;;5102066;28;20197;-44
2023/11/10 12:36:32;;;;;;;4.00;2.03;;;9.20;99.90;;;;;;5093777;27;20216;-46
2023/11/10 12:39:01;;;;;;;3.57;2.10;;;9.20;99.90;;;;;;5096542;28;20205;-46
2023/11/10 12:41:29;;;;;;;4.87;2.10;;;9.30;99.90;;;;;;5071148;27;20205;-45
2023/11/10 12:43:57;;;;;;;2.77;2.20;;;9.30;99.90;;;;;;5095798;28;20185;-44
2023/11/10 12:46:24;;;;;;;2.67;2.27;;;9.30;99.90;;;;;;5106158;27;20217;-44
2023/11/10 12:48:55;;;;;;;3.60;2.80;;;9.30;99.90;;;;;;5103412;27;20189;-46
2023/11/10 12:51:24;;;;;;;4.00;2.20;;;9.30;99.90;;;;;;5095246;27;20268;-49
2023/11/10 12:54:06;;;;;;;5.77;2.27;;;9.30;99.90;;;;;;5098980;28;20296;-48
2023/11/10 12:56:35;;;;;;;4.77;2.33;;;9.30;99.90;;;;;;5065264;28;20225;-46
2023/11/10 12:59:04;;;;;;;2.93;2.20;;;9.20;99.90;;;;;;5099429;28;20206;-48
2023/11/10 13:01:31;;;;;;;2.70;1.90;;;9.30;99.90;;;;;;5090180;28;20202;-47
2023/11/10 13:03:58;;;;;;;7.60;2.63;;;9.30;99.90;;;;;;5099487;28;20200;-47
2023/11/10 13:06:26;;;;;;;2.53;2.20;;;9.20;99.90;;;;;;5099157;28;20289;-48